Time,TemperatureF,DewpointF,PressureIn,WindDirection,WindDirectionDegrees,WindSpeedMPH,WindSpeedGustMPH,Humidity,HourlyPrecipIn,Conditions,Clouds,dailyrainin,SoftwareType,DateUTC
2013-07-01 00:00:00,56.3,48.8,29.92,WNW,302,17.0,26.0,76,0.00,RA,RA,0.00,WeatherDisplay:10.37,2013-06-30 23:00:00,
2013-07-01 00:10:00,56.3,48.8,29.92,West,274,17.0,28.0,76,0.00,CLR,CLR,0.00,WeatherDisplay:10.37,2013-06-30 23:10:00,
2013-07-01 00:20:00,56.1,48.3,29.92,WNW,286,15.0,30.0,75,0.00,CLR,CLR,0.00,WeatherDisplay:10.37,2013-06-30 23:20:00,
2013-07-01 00:30:00,56.3,48.8,29.92,West,268,17.0,27.0,76,0.00,CLR,CLR,0.00,WeatherDisplay:10.37,2013-06-30 23:30:00,
2013-07-01 00:40:00,56.3,48.5,29.92,WNW,284,16.0,27.0,75,0.00,CLR,CLR,0.00,WeatherDisplay:10.37,2013-06-30 23:40:00,
2013-07-01 00:50:00,56.3,48.8,29.91,West,276,16.0,26.0,76,0.00,CLR,CLR,0.00,WeatherDisplay:10.37,2013-06-30 23:50:00,
2013-07-01 01:00:00,56.3,47.8,29.91,WNW,287,18.0,26.0,73,0.00,CLR,CLR,0.00,WeatherDisplay:10.37,2013-07-01 00:00:00,
2013-07-01 01:10:00,56.3,47.8,29.91,West,278,18.0,26.0,73,0.00,CLR,CLR,0.00,WeatherDisplay:10.37,2013-07-01 00:10:00,
2013-07-01 01:20:00,56.1,48.3,29.91,WNW,292,16.0,29.0,75,0.00,CLR,CLR,0.00,WeatherDisplay:10.37,2013-07-01 00:20:00,
2013-07-01 01:30:00,55.9,48.5,29.91,WNW,289,13.0,24.0,76,0.00,CLR,CLR,0.00,WeatherDisplay:10.37,2013-07-01 00:30:00,
2013-07-01 01:40:00,56.3,49.2,29.91,WNW,301,16.0,23.0,77,0.00,CLR,CLR,0.00,WeatherDisplay:10.37,2013-07-01 00:40:00,
2013-07-01 01:50:00,56.1,49.0,29.90,NW,304,12.0,22.0,77,0.00,CLR,CLR,0.00,WeatherDisplay:10.37,2013-07-01 00:50:00,
2013-07-01 02:00:00,56.3,48.8,29.90,WNW,286,14.0,21.0,76,0.00,CLR,CLR,0.00,WeatherDisplay:10.37,2013-07-01 01:00:00,
2013-07-01 02:10:00,56.1,47.9,29.90,WNW,286,17.0,27.0,74,0.00,CLR,CLR,0.00,WeatherDisplay:10.37,2013-07-01 01:10:00,
2013-07-01 02:20:00,55.9,48.1,29.90,WNW,290,17.0,26.0,75,0.00,CLR,CLR,0.00,WeatherDisplay:10.37,2013-07-01 01:20:00,
2013-07-01 02:30:00,55.8,48.0,29.90,WNW,288,12.0,22.0,75,0.00,CLR,CLR,0.00,WeatherDisplay:10.37,2013-07-01 01:30:00,
2013-07-01 02:40:00,55.9,46.7,29.90,WNW,283,13.0,20.0,71,0.00,CLR,CLR,0.00,WeatherDisplay:10.37,2013-07-01 01:40:00,
2013-07-01 02:50:00,56.1,46.8,29.90,NW,308,14.0,21.0,71,0.00,CLR,CLR,0.00,WeatherDisplay:10.37,2013-07-01 01:50:00,
2013-07-01 03:00:00,55.3,46.4,29.89,WNW,294,20.0,29.0,72,0.00,CLR,CLR,0.00,WeatherDisplay:10.37,2013-07-01 02:00:00,
2013-07-01 03:10:00,55.0,46.2,29.89,NW,309,17.0,28.0,72,0.00,CLR,CLR,0.00,WeatherDisplay:10.37,2013-07-01 02:10:00,
2013-07-01 03:20:00,54.9,46.0,29.89,NW,305,13.0,21.0,72,0.00,CLR,CLR,0.00,WeatherDisplay:10.37,2013-07-01 02:20:00,
2013-07-01 03:30:00,54.7,46.2,29.89,West,278,13.0,23.0,73,0.00,CLR,CLR,0.00,WeatherDisplay:10.37,2013-07-01 02:30:00,
2013-07-01 03:40:00,54.7,46.6,29.89,West,262,12.0,21.0,74,0.00,CLR,CLR,0.00,WeatherDisplay:10.37,2013-07-01 02:40:00,
2013-07-01 03:50:00,54.8,47.4,29.88,WNW,297,13.0,21.0,76,0.00,CLR,CLR,0.00,WeatherDisplay:10.37,2013-07-01 02:50:00,
2013-07-01 04:00:00,55.0,47.9,29.88,WNW,288,12.0,18.0,77,0.00,CLR,CLR,0.00,WeatherDisplay:10.37,2013-07-01 03:00:00,
2013-07-01 04:10:00,55.2,48.5,29.88,West,278,12.0,18.0,78,0.00,CLR,CLR,0.00,WeatherDisplay:10.37,2013-07-01 03:10:00,
2013-07-01 04:20:00,55.2,48.4,29.88,WNW,296,12.0,18.0,78,0.00,CLR,CLR,0.00,WeatherDisplay:10.37,2013-07-01 03:20:00,
2013-07-01 04:30:00,54.7,48.0,29.88,WNW,288,13.0,20.0,78,0.00,CLR,CLR,0.00,WeatherDisplay:10.37,2013-07-01 03:30:00,
2013-07-01 04:40:00,54.7,48.3,29.88,WNW,285,13.0,20.0,79,0.00,CLR,CLR,0.00,WeatherDisplay:10.37,2013-07-01 03:40:00,
2013-07-01 04:50:00,54.6,48.2,29.89,WNW,285,15.0,20.0,79,0.00,CLR,CLR,0.00,WeatherDisplay:10.37,2013-07-01 03:50:00,
2013-07-01 05:00:00,54.7,48.0,29.88,WNW,289,16.0,22.0,78,0.00,CLR,CLR,0.00,WeatherDisplay:10.37,2013-07-01 04:00:00,
2013-07-01 05:10:00,54.8,47.7,29.88,WNW,284,14.0,22.0,77,0.00,CLR,CLR,0.00,WeatherDisplay:10.37,2013-07-01 04:10:00,
2013-07-01 05:20:00,54.9,48.1,29.88,WNW,302,13.0,23.0,78,0.00,CLR,CLR,0.00,WeatherDisplay:10.37,2013-07-01 04:20:00,
2013-07-01 05:30:00,54.7,48.3,29.88,WNW,302,16.0,21.0,79,0.00,CLR,CLR,0.00,WeatherDisplay:10.37,2013-07-01 04:30:00,
2013-07-01 05:40:00,54.7,49.0,29.88,NNW,327,14.0,21.0,81,0.00,CLR,CLR,0.00,WeatherDisplay:10.37,2013-07-01 04:40:00,
2013-07-01 05:50:00,54.0,48.3,29.88,WNW,294,15.0,21.0,81,0.00,CLR,CLR,0.00,WeatherDisplay:10.37,2013-07-01 04:50:00,
2013-07-01 06:00:00,54.0,48.3,29.88,WNW,283,13.0,21.0,81,0.00,CLR,CLR,0.00,WeatherDisplay:10.37,2013-07-01 05:00:00,
2013-07-01 06:10:00,57.0,49.5,29.88,WNW,298,13.0,20.0,76,0.00,CLR,CLR,0.00,WeatherDisplay:10.37,2013-07-01 05:10:00,
2013-07-01 06:20:00,57.0,48.8,29.89,WNW,297,15.0,23.0,74,0.00,CLR,CLR,0.00,WeatherDisplay:10.37,2013-07-01 05:20:00,
2013-07-01 06:30:00,57.3,48.7,29.88,WNW,286,14.0,21.0,73,0.00,CLR,CLR,0.00,WeatherDisplay:10.37,2013-07-01 05:30:00,
2013-07-01 06:40:00,57.9,48.9,29.89,WNW,296,12.0,18.0,72,0.00,CLR,CLR,0.00,WeatherDisplay:10.37,2013-07-01 05:40:00,
2013-07-01 06:50:00,57.9,48.9,29.88,WNW,292,13.0,21.0,72,0.00,CLR,CLR,0.00,WeatherDisplay:10.37,2013-07-01 05:50:00,
2013-07-01 07:00:00,57.3,49.1,29.89,WNW,284,15.0,21.0,74,0.00,CLR,CLR,0.00,WeatherDisplay:10.37,2013-07-01 06:00:00,
2013-07-01 07:10:00,57.1,49.3,29.89,West,280,10.0,21.0,75,0.00,CLR,CLR,0.00,WeatherDisplay:10.37,2013-07-01 06:10:00,
2013-07-01 07:20:00,57.4,49.5,29.89,WNW,289,14.0,17.0,75,0.00,CLR,CLR,0.00,WeatherDisplay:10.37,2013-07-01 06:20:00,
2013-07-01 07:30:00,57.4,49.5,29.88,WNW,296,9.0,18.0,75,0.00,CLR,CLR,0.00,WeatherDisplay:10.37,2013-07-01 06:30:00,
2013-07-01 07:40:00,57.6,49.3,29.88,WNW,286,8.0,16.0,74,0.00,CLR,CLR,0.00,WeatherDisplay:10.37,2013-07-01 06:40:00,
2013-07-01 07:50:00,56.8,49.4,29.89,West,276,9.0,14.0,76,0.00,CLR,CLR,0.00,WeatherDisplay:10.37,2013-07-01 06:50:00,
2013-07-01 08:00:00,58.1,49.9,29.89,WNW,284,14.0,18.0,74,0.00,CLR,CLR,0.00,WeatherDisplay:10.37,2013-07-01 07:00:00,
2013-07-01 08:10:00,59.9,50.5,29.89,NW,313,8.0,17.0,71,0.00,CLR,CLR,0.00,WeatherDisplay:10.37,2013-07-01 07:10:00,
2013-07-01 08:20:00,59.2,49.8,29.89,NW,313,14.0,20.0,71,0.00,CLR,CLR,0.00,WeatherDisplay:10.37,2013-07-01 07:20:00,
2013-07-01 08:30:00,58.6,49.3,29.90,WNW,287,15.0,21.0,71,0.00,CLR,CLR,0.00,WeatherDisplay:10.37,2013-07-01 07:30:00,
2013-07-01 08:40:00,58.8,49.4,29.90,WNW,298,15.0,23.0,71,0.00,CLR,CLR,0.00,WeatherDisplay:10.37,2013-07-01 07:40:00,
2013-07-01 08:50:00,59.0,48.8,29.90,WNW,290,14.0,20.0,69,0.00,CLR,CLR,0.00,WeatherDisplay:10.37,2013-07-01 07:50:00,
2013-07-01 09:00:00,59.0,48.4,29.90,WNW,293,8.0,22.0,68,0.00,CLR,CLR,0.00,WeatherDisplay:10.37,2013-07-01 08:00:00,
2013-07-01 09:10:00,59.2,48.6,29.90,WNW,288,13.0,20.0,68,0.00,CLR,CLR,0.00,WeatherDisplay:10.37,2013-07-01 08:10:00,
2013-07-01 09:20:00,59.4,49.2,29.90,WNW,294,15.0,20.0,69,0.00,CLR,CLR,0.00,WeatherDisplay:10.37,2013-07-01 08:20:00,
2013-07-01 09:30:00,59.7,49.5,29.90,West,277,14.0,22.0,69,0.00,CLR,CLR,0.00,WeatherDisplay:10.37,2013-07-01 08:30:00,
2013-07-01 09:40:00,58.3,48.5,29.89,West,266,14.0,24.0,70,0.00,CLR,CLR,0.00,WeatherDisplay:10.37,2013-07-01 08:40:00,
2013-07-01 09:50:00,59.9,49.3,29.89,West,275,14.0,23.0,68,0.00,CLR,CLR,0.00,WeatherDisplay:10.37,2013-07-01 08:50:00,
2013-07-01 10:00:00,60.1,49.1,29.89,WNW,283,15.0,23.0,67,0.00,CLR,CLR,0.00,WeatherDisplay:10.37,2013-07-01 09:00:00,
2013-07-01 10:10:00,59.5,48.2,29.90,WNW,291,10.0,23.0,66,0.00,CLR,CLR,0.00,WeatherDisplay:10.37,2013-07-01 09:10:00,
2013-07-01 10:20:00,59.5,47.8,29.89,WNW,303,15.0,22.0,65,0.00,CLR,CLR,0.00,WeatherDisplay:10.37,2013-07-01 09:20:00,
2013-07-01 10:30:00,60.3,47.6,29.89,West,274,14.0,26.0,63,0.00,CLR,CLR,0.00,WeatherDisplay:10.37,2013-07-01 09:30:00,
2013-07-01 10:40:00,60.0,47.4,29.89,West,265,15.0,24.0,63,0.00,CLR,CLR,0.00,WeatherDisplay:10.37,2013-07-01 09:40:00,
2013-07-01 10:50:00,59.2,47.8,29.89,West,267,16.0,23.0,66,0.00,CLR,CLR,0.00,WeatherDisplay:10.37,2013-07-01 09:50:00,
2013-07-01 11:00:00,58.4,47.8,29.89,West,277,16.0,23.0,68,0.00,CLR,CLR,0.00,WeatherDisplay:10.37,2013-07-01 10:00:00,
2013-07-01 11:10:00,59.0,48.1,29.90,West,275,14.0,24.0,67,0.00,CLR,CLR,0.00,WeatherDisplay:10.37,2013-07-01 10:10:00,
2013-07-01 11:20:00,59.1,48.2,29.89,WNW,296,15.0,24.0,67,0.00,CLR,CLR,0.00,WeatherDisplay:10.37,2013-07-01 10:20:00,
2013-07-01 11:30:00,59.2,47.8,29.90,West,259,17.0,25.0,66,0.00,CLR,CLR,0.00,WeatherDisplay:10.37,2013-07-01 10:30:00,
2013-07-01 11:40:00,60.1,48.7,29.90,West,273,21.0,28.0,66,0.00,CLR,CLR,0.00,WeatherDisplay:10.37,2013-07-01 10:40:00,
2013-07-01 11:50:00,59.5,47.7,29.90,West,262,21.0,28.0,65,0.00,CLR,CLR,0.00,WeatherDisplay:10.37,2013-07-01 10:50:00,
2013-07-01 12:00:00,58.8,47.5,29.90,West,262,16.0,25.0,66,0.00,CLR,CLR,0.00,WeatherDisplay:10.37,2013-07-01 11:00:00,
2013-07-01 12:10:00,59.9,47.7,29.91,NW,312,16.0,25.0,64,0.00,CLR,CLR,0.00,WeatherDisplay:10.37,2013-07-01 11:10:00,
2013-07-01 12:20:00,58.9,46.8,29.91,WNW,282,17.0,25.0,64,0.00,CLR,CLR,0.00,WeatherDisplay:10.37,2013-07-01 11:20:00,
2013-07-01 12:30:00,58.6,46.9,29.91,West,273,17.0,27.0,65,0.00,CLR,CLR,0.00,WeatherDisplay:10.37,2013-07-01 11:30:00,
2013-07-01 12:40:00,59.0,47.2,29.90,West,269,18.0,25.0,65,0.00,CLR,CLR,0.00,WeatherDisplay:10.37,2013-07-01 11:40:00,
2013-07-01 12:50:00,60.1,47.9,29.90,WNW,282,14.0,25.0,64,0.00,CLR,CLR,0.00,WeatherDisplay:10.37,2013-07-01 11:50:00,
2013-07-01 13:00:00,60.3,48.0,29.90,West,271,20.0,23.0,64,0.00,CLR,CLR,0.00,WeatherDisplay:10.37,2013-07-01 12:00:00,
2013-07-01 13:10:00,59.9,48.1,29.91,West,274,18.0,26.0,65,0.00,CLR,CLR,0.00,WeatherDisplay:10.37,2013-07-01 12:10:00,
2013-07-01 13:20:00,60.1,47.4,29.90,West,279,18.0,25.0,63,0.00,CLR,CLR,0.00,WeatherDisplay:10.37,2013-07-01 12:20:00,
2013-07-01 13:30:00,60.4,47.4,29.90,West,269,14.0,23.0,62,0.00,CLR,CLR,0.00,WeatherDisplay:10.37,2013-07-01 12:30:00,
2013-07-01 13:40:00,60.4,47.8,29.90,West,272,21.0,26.0,63,0.00,CLR,CLR,0.00,WeatherDisplay:10.37,2013-07-01 12:40:00,
2013-07-01 13:50:00,59.7,44.5,29.90,West,278,16.0,24.0,57,0.00,CLR,CLR,0.00,WeatherDisplay:10.37,2013-07-01 12:50:00,
2013-07-01 14:00:00,60.3,45.4,29.90,West,273,17.0,24.0,58,0.00,CLR,CLR,0.00,WeatherDisplay:10.37,2013-07-01 13:00:00,
2013-07-01 14:10:00,60.1,44.3,29.90,West,265,15.0,23.0,56,0.00,CLR,CLR,0.00,WeatherDisplay:10.37,2013-07-01 13:10:00,
2013-07-01 14:20:00,60.7,44.0,29.90,WSW,245,15.0,21.0,54,0.00,CLR,CLR,0.00,WeatherDisplay:10.37,2013-07-01 13:20:00,
2013-07-01 14:30:00,60.7,45.8,29.90,WSW,254,14.0,22.0,58,0.00,CLR,CLR,0.00,WeatherDisplay:10.37,2013-07-01 13:30:00,
2013-07-01 14:40:00,59.5,46.1,29.89,WSW,250,14.0,21.0,61,0.00,CLR,CLR,0.00,WeatherDisplay:10.37,2013-07-01 13:40:00,
2013-07-01 14:50:00,59.2,46.6,29.90,WSW,246,15.0,23.0,63,0.00,CLR,CLR,0.00,WeatherDisplay:10.37,2013-07-01 13:50:00,
2013-07-01 15:00:00,59.6,47.0,29.89,West,276,16.0,23.0,63,0.00,CLR,CLR,0.00,WeatherDisplay:10.37,2013-07-01 14:00:00,
2013-07-01 15:10:00,60.4,45.1,29.90,West,274,17.0,24.0,57,0.00,CLR,CLR,0.00,WeatherDisplay:10.37,2013-07-01 14:10:00,
2013-07-01 15:20:00,60.3,43.6,29.89,West,261,16.0,22.0,54,0.00,CLR,CLR,0.00,WeatherDisplay:10.37,2013-07-01 14:20:00,
2013-07-01 15:30:00,60.7,45.3,29.89,WSW,258,13.0,21.0,57,0.00,CLR,CLR,0.00,WeatherDisplay:10.37,2013-07-01 14:30:00,
2013-07-01 15:40:00,60.1,46.6,29.89,West,272,13.0,20.0,61,0.00,CLR,CLR,0.00,WeatherDisplay:10.37,2013-07-01 14:40:00,
2013-07-01 15:50:00,59.0,46.8,29.88,West,264,10.0,21.0,64,0.00,CLR,CLR,0.00,WeatherDisplay:10.37,2013-07-01 14:50:00,
2013-07-01 16:00:00,58.6,47.7,29.88,WSW,253,14.0,18.0,67,0.00,CLR,CLR,0.00,WeatherDisplay:10.37,2013-07-01 15:00:00,
2013-07-01 16:10:00,58.0,47.5,29.88,West,266,14.0,21.0,68,0.00,CLR,CLR,0.00,WeatherDisplay:10.37,2013-07-01 15:10:00,
2013-07-01 16:20:00,57.9,47.8,29.88,WSW,255,17.0,25.0,69,0.00,CLR,CLR,0.00,WeatherDisplay:10.37,2013-07-01 15:20:00,
2013-07-01 16:30:00,58.4,47.9,29.87,West,268,17.0,23.0,68,0.00,CLR,CLR,0.00,WeatherDisplay:10.37,2013-07-01 15:30:00,
2013-07-01 16:40:00,58.1,48.0,29.88,WNW,283,16.0,24.0,69,0.00,CLR,CLR,0.00,WeatherDisplay:10.37,2013-07-01 15:40:00,
2013-07-01 16:50:00,57.4,47.7,29.87,WSW,253,15.0,26.0,70,0.00,CLR,CLR,0.00,WeatherDisplay:10.37,2013-07-01 15:50:00,
2013-07-01 17:00:00,58.6,48.4,29.87,West,274,16.0,23.0,69,0.00,CLR,CLR,0.00,WeatherDisplay:10.37,2013-07-01 16:00:00,
2013-07-01 17:10:00,59.0,47.2,29.86,West,264,16.0,24.0,65,0.00,CLR,CLR,0.00,WeatherDisplay:10.37,2013-07-01 16:10:00,
2013-07-01 17:20:00,59.0,48.0,29.87,WSW,255,15.0,23.0,67,0.00,CLR,CLR,0.00,WeatherDisplay:10.37,2013-07-01 16:20:00,
2013-07-01 17:30:00,58.4,48.7,29.86,West,268,14.0,22.0,70,0.00,CLR,CLR,0.00,WeatherDisplay:10.37,2013-07-01 16:30:00,
2013-07-01 17:40:00,58.5,48.7,29.86,West,266,14.0,20.0,70,0.00,CLR,CLR,0.00,WeatherDisplay:10.37,2013-07-01 16:40:00,
2013-07-01 17:50:00,59.5,48.6,29.86,West,270,13.0,21.0,67,0.00,CLR,CLR,0.00,WeatherDisplay:10.37,2013-07-01 16:50:00,
2013-07-01 18:00:00,59.4,48.8,29.86,West,262,16.0,23.0,68,0.00,CLR,CLR,0.00,WeatherDisplay:10.37,2013-07-01 17:00:00,
2013-07-01 18:10:00,59.8,47.6,29.86,WSW,248,15.0,23.0,64,0.00,CLR,CLR,0.00,WeatherDisplay:10.37,2013-07-01 17:10:00,
2013-07-01 18:20:00,58.6,47.6,29.86,West,275,15.0,22.0,67,0.00,CLR,CLR,0.00,WeatherDisplay:10.37,2013-07-01 17:20:00,
2013-07-01 18:30:00,58.3,47.4,29.85,WSW,246,13.0,21.0,67,0.00,CLR,CLR,0.00,WeatherDisplay:10.37,2013-07-01 17:30:00,
2013-07-01 18:40:00,57.6,47.5,29.86,West,263,15.0,20.0,69,0.00,CLR,CLR,0.00,WeatherDisplay:10.37,2013-07-01 17:40:00,
2013-07-01 18:50:00,57.2,46.7,29.85,West,269,13.0,22.0,68,0.00,CLR,CLR,0.00,WeatherDisplay:10.37,2013-07-01 17:50:00,
2013-07-01 19:00:00,57.0,47.3,29.86,WNW,287,13.0,22.0,70,0.00,CLR,CLR,0.00,WeatherDisplay:10.37,2013-07-01 18:00:00,
2013-07-01 19:10:00,56.8,46.8,29.85,WSW,257,14.0,21.0,69,0.00,CLR,CLR,0.00,WeatherDisplay:10.37,2013-07-01 18:10:00,
2013-07-01 19:20:00,56.8,47.5,29.85,West,266,14.0,17.0,71,0.00,CLR,CLR,0.00,WeatherDisplay:10.37,2013-07-01 18:20:00,
2013-07-01 19:30:00,56.7,47.0,29.85,West,259,10.0,21.0,70,0.00,CLR,CLR,0.00,WeatherDisplay:10.37,2013-07-01 18:30:00,
2013-07-01 19:40:00,56.7,47.4,29.85,WSW,251,12.0,20.0,71,0.00,CLR,CLR,0.00,WeatherDisplay:10.37,2013-07-01 18:40:00,
2013-07-01 19:50:00,56.5,47.2,29.84,WSW,254,15.0,20.0,71,0.00,CLR,CLR,0.00,WeatherDisplay:10.37,2013-07-01 18:50:00,
2013-07-01 20:00:00,56.5,47.2,29.84,West,262,13.0,20.0,71,0.00,CLR,CLR,0.00,WeatherDisplay:10.37,2013-07-01 19:00:00,
2013-07-01 20:10:00,56.4,47.1,29.84,WSW,253,16.0,21.0,71,0.00,CLR,CLR,0.00,WeatherDisplay:10.37,2013-07-01 19:10:00,
2013-07-01 20:20:00,56.3,47.4,29.83,WSW,253,15.0,21.0,72,0.00,CLR,CLR,0.00,WeatherDisplay:10.37,2013-07-01 19:20:00,
2013-07-01 20:30:00,56.3,47.4,29.83,WSW,250,12.0,20.0,72,0.00,CLR,CLR,0.00,WeatherDisplay:10.37,2013-07-01 19:30:00,
2013-07-01 20:40:00,56.1,46.8,29.83,WSW,240,16.0,22.0,71,0.00,CLR,CLR,0.00,WeatherDisplay:10.37,2013-07-01 19:40:00,
2013-07-01 20:50:00,56.1,47.2,29.83,WSW,246,12.0,20.0,72,0.00,CLR,CLR,0.00,WeatherDisplay:10.37,2013-07-01 19:50:00,
2013-07-01 21:00:00,56.2,48.0,29.83,WSW,244,12.0,22.0,74,0.00,CLR,CLR,0.00,WeatherDisplay:10.37,2013-07-01 20:00:00,
2013-07-01 21:10:00,56.1,47.9,29.83,SW,235,15.0,24.0,74,0.00,CLR,CLR,0.00,WeatherDisplay:10.37,2013-07-01 20:10:00,
2013-07-01 21:20:00,56.1,47.2,29.82,SW,219,17.0,24.0,72,0.00,CLR,CLR,0.00,WeatherDisplay:10.37,2013-07-01 20:20:00,
2013-07-01 21:30:00,55.9,47.8,29.82,SW,227,16.0,20.0,74,0.00,CLR,CLR,0.00,WeatherDisplay:10.37,2013-07-01 20:30:00,
2013-07-01 21:40:00,55.9,48.1,29.82,WSW,237,13.0,17.0,75,0.00,CLR,CLR,0.00,WeatherDisplay:10.37,2013-07-01 20:40:00,
2013-07-01 21:50:00,55.8,48.0,29.81,SW,216,15.0,18.0,75,0.00,CLR,CLR,0.00,WeatherDisplay:10.37,2013-07-01 20:50:00,
2013-07-01 22:00:00,55.6,48.1,29.81,SSW,211,12.0,18.0,76,0.00,CLR,CLR,0.00,WeatherDisplay:10.37,2013-07-01 21:00:00,
2013-07-01 22:10:00,55.4,48.0,29.80,South,185,8.0,15.0,76,0.00,CLR,CLR,0.00,WeatherDisplay:10.37,2013-07-01 21:10:00,
2013-07-01 22:20:00,55.0,48.0,29.79,South,180,6.0,11.0,77,0.00,CLR,CLR,0.00,WeatherDisplay:10.37,2013-07-01 21:20:00,
2013-07-01 22:30:00,54.9,48.5,29.79,South,172,8.0,10.0,79,0.00,CLR,CLR,0.00,WeatherDisplay:10.37,2013-07-01 21:30:00,
2013-07-01 22:40:00,54.7,48.6,29.79,South,169,7.0,11.0,80,0.00,CLR,CLR,0.00,WeatherDisplay:10.37,2013-07-01 21:40:00,
2013-07-01 22:50:00,54.4,48.7,29.78,SSE,162,9.0,12.0,81,0.00,CLR,CLR,0.00,WeatherDisplay:10.37,2013-07-01 21:50:00,
2013-07-01 23:00:00,54.3,48.9,29.78,SSE,154,8.0,13.0,82,0.00,CLR,CLR,0.00,WeatherDisplay:10.37,2013-07-01 22:00:00,
2013-07-01 23:10:00,54.1,48.8,29.77,SE,144,6.0,11.0,82,0.00,CLR,CLR,0.00,WeatherDisplay:10.37,2013-07-01 22:10:00,
2013-07-01 23:20:00,53.8,48.7,29.77,SE,127,8.0,13.0,83,0.00,CLR,CLR,0.00,WeatherDisplay:10.37,2013-07-01 22:20:00,
2013-07-01 23:30:00,53.4,49.3,29.76,SE,142,7.0,13.0,86,0.00,CLR,CLR,0.00,WeatherDisplay:10.37,2013-07-01 22:30:00,
2013-07-01 23:40:00,53.1,49.0,29.76,SE,144,8.0,11.0,86,0.00,CLR,CLR,0.00,WeatherDisplay:10.37,2013-07-01 22:40:00,
2013-07-01 23:50:00,52.9,49.1,29.74,SE,129,8.0,11.0,87,0.01,RA,RA,0.01,WeatherDisplay:10.37,2013-07-01 22:50:00,